sensor_id;sensor_type;location;lat;lon;timestamp;pressure;altitude;pressure_sealevel;temperature;humidity
32109;BME280;18624;50.042;8.436;2022-10-31T00:00:46;100946.81;;;12.07;100.00
32109;BME280;18624;50.042;8.436;2022-10-31T00:03:13;100933.97;;;12.01;100.00
32109;BME280;18624;50.042;8.436;2022-10-31T00:05:44;100947.72;;;12.01;100.00
32109;BME280;18624;50.042;8.436;2022-10-31T00:08:11;100940.75;;;11.96;100.00
32109;BME280;18624;50.042;8.436;2022-10-31T00:10:41;100948.09;;;12.03;100.00
32109;BME280;18624;50.042;8.436;2022-10-31T00:13:08;100950.84;;;12.03;100.00
32109;BME280;18624;50.042;8.436;2022-10-31T00:15:39;100958.22;;;12.06;100.00
32109;BME280;18624;50.042;8.436;2022-10-31T00:18:07;100955.47;;;12.06;100.00
32109;BME280;18624;50.042;8.436;2022-10-31T00:20:34;100962.88;;;12.09;100.00
32109;BME280;18624;50.042;8.436;2022-10-31T00:23:01;100924.50;;;11.85;100.00
32109;BME280;18624;50.042;8.436;2022-10-31T00:25:32;100959.69;;;12.10;100.00
32109;BME280;18624;50.042;8.436;2022-10-31T00:27:59;100957.31;;;12.12;100.00
32109;BME280;18624;50.042;8.436;2022-10-31T00:30:26;100957.81;;;12.07;100.00
32109;BME280;18624;50.042;8.436;2022-10-31T00:32:52;100951.59;;;12.03;100.00
32109;BME280;18624;50.042;8.436;2022-10-31T00:35:19;100967.84;;;12.14;100.00
32109;BME280;18624;50.042;8.436;2022-10-31T00:37:45;100970.59;;;12.14;100.00
32109;BME280;18624;50.042;8.436;2022-10-31T00:40:11;100974.19;;;12.11;100.00
32109;BME280;18624;50.042;8.436;2022-10-31T00:42:39;100963.56;;;12.13;100.00
32109;BME280;18624;50.042;8.436;2022-10-31T00:45:06;100969.84;;;12.13;100.00
32109;BME280;18624;50.042;8.436;2022-10-31T00:47:32;100965.09;;;12.14;100.00
32109;BME280;18624;50.042;8.436;2022-10-31T00:49:59;100976.09;;;12.14;100.00
32109;BME280;18624;50.042;8.436;2022-10-31T00:52:25;100971.38;;;12.14;100.00
32109;BME280;18624;50.042;8.436;2022-10-31T00:54:52;100983.91;;;12.15;100.00
32109;BME280;18624;50.042;8.436;2022-10-31T00:57:18;100939.72;;;11.90;100.00
32109;BME280;18624;50.042;8.436;2022-10-31T00:59:45;100974.13;;;12.14;100.00
32109;BME280;18624;50.042;8.436;2022-10-31T01:02:11;100905.66;;;11.64;100.00
32109;BME280;18624;50.042;8.436;2022-10-31T01:04:38;100972.25;;;12.11;100.00
32109;BME280;18624;50.042;8.436;2022-10-31T01:07:05;100972.25;;;12.11;100.00
32109;BME280;18624;50.042;8.436;2022-10-31T01:09:31;100973.84;;;12.09;100.00
32109;BME280;18624;50.042;8.436;2022-10-31T01:11:58;100976.25;;;12.07;100.00
32109;BME280;18624;50.042;8.436;2022-10-31T01:14:24;100974.34;;;12.04;100.00
32109;BME280;18624;50.042;8.436;2022-10-31T01:16:51;100976.34;;;12.03;100.00
32109;BME280;18624;50.042;8.436;2022-10-31T01:19:17;100969.28;;;12.02;100.00
32109;BME280;18624;50.042;8.436;2022-10-31T01:21:44;100966.19;;;12.00;100.00
32109;BME280;18624;50.042;8.436;2022-10-31T01:24:10;100963.88;;;11.99;100.00
32109;BME280;18624;50.042;8.436;2022-10-31T01:26:37;100967.38;;;11.99;100.00
32109;BME280;18624;50.042;8.436;2022-10-31T01:29:06;100957.22;;;11.96;100.00
32109;BME280;18624;50.042;8.436;2022-10-31T01:31:38;100953.78;;;11.92;100.00
32109;BME280;18624;50.042;8.436;2022-10-31T01:34:05;100961.25;;;11.91;100.00
32109;BME280;18624;50.042;8.436;2022-10-31T01:36:36;100962.78;;;11.93;100.00
32109;BME280;18624;50.042;8.436;2022-10-31T01:39:07;100950.31;;;11.88;100.00
32109;BME280;18624;50.042;8.436;2022-10-31T01:41:36;100951.97;;;11.85;100.00
32109;BME280;18624;50.042;8.436;2022-10-31T01:46:49;100960.69;;;11.80;100.00
32109;BME280;18624;50.042;8.436;2022-10-31T01:49:31;100959.91;;;11.80;100.00
32109;BME280;18624;50.042;8.436;2022-10-31T01:52:06;100952.06;;;11.78;100.00
32109;BME280;18624;50.042;8.436;2022-10-31T01:54:39;100956.44;;;11.76;100.00
32109;BME280;18624;50.042;8.436;2022-10-31T01:57:08;100959.97;;;11.76;100.00
32109;BME280;18624;50.042;8.436;2022-10-31T01:59:40;100952.94;;;11.75;100.00
32109;BME280;18624;50.042;8.436;2022-10-31T02:02:10;100947.44;;;11.75;100.00
32109;BME280;18624;50.042;8.436;2022-10-31T02:04:38;100942.78;;;11.72;100.00
32109;BME280;18624;50.042;8.436;2022-10-31T02:07:08;100945.53;;;11.72;100.00
32109;BME280;18624;50.042;8.436;2022-10-31T02:09:37;100949.03;;;11.73;100.00
32109;BME280;18624;50.042;8.436;2022-10-31T02:12:04;100952.22;;;11.71;100.00
32109;BME280;18624;50.042;8.436;2022-10-31T02:14:31;100907.28;;;11.41;100.00
32109;BME280;18624;50.042;8.436;2022-10-31T02:16:58;100958.06;;;11.73;100.00
32109;BME280;18624;50.042;8.436;2022-10-31T02:22:43;100956.09;;;11.74;100.00
32109;BME280;18624;50.042;8.436;2022-10-31T02:31:13;100955.75;;;11.72;100.00
32109;BME280;18624;50.042;8.436;2022-10-31T02:33:46;100921.28;;;11.47;100.00
32109;BME280;18624;50.042;8.436;2022-10-31T02:36:43;100962.06;;;11.69;100.00
32109;BME280;18624;50.042;8.436;2022-10-31T02:39:37;100960.94;;;11.66;100.00
32109;BME280;18624;50.042;8.436;2022-10-31T02:42:12;100962.91;;;11.65;100.00
32109;BME280;18624;50.042;8.436;2022-10-31T02:47:18;100926.38;;;11.25;100.00
32109;BME280;18624;50.042;8.436;2022-10-31T02:52:30;100961.13;;;11.55;100.00
32109;BME280;18624;50.042;8.436;2022-10-31T02:57:57;100879.66;;;11.09;100.00
32109;BME280;18624;50.042;8.436;2022-10-31T03:00:26;100941.22;;;11.51;100.00
32109;BME280;18624;50.042;8.436;2022-10-31T03:03:28;100939.78;;;11.43;100.00
32109;BME280;18624;50.042;8.436;2022-10-31T03:06:03;100937.91;;;11.40;100.00
32109;BME280;18624;50.042;8.436;2022-10-31T03:09:12;100946.91;;;11.40;100.00
32109;BME280;18624;50.042;8.436;2022-10-31T03:11:49;100902.38;;;11.09;100.00
32109;BME280;18624;50.042;8.436;2022-10-31T03:14:26;100946.13;;;11.40;100.00
32109;BME280;18624;50.042;8.436;2022-10-31T03:16:59;100954.78;;;11.38;100.00
32109;BME280;18624;50.042;8.436;2022-10-31T03:19:49;100937.31;;;11.29;100.00
32109;BME280;18624;50.042;8.436;2022-10-31T03:22:28;100906.66;;;11.10;100.00
32109;BME280;18624;50.042;8.436;2022-10-31T03:24:58;100945.44;;;11.36;100.00
32109;BME280;18624;50.042;8.436;2022-10-31T03:27:29;100853.94;;;10.79;100.00
32109;BME280;18624;50.042;8.436;2022-10-31T03:30:02;100945.81;;;11.34;100.00
32109;BME280;18624;50.042;8.436;2022-10-31T03:32:38;100938.03;;;11.33;100.00
32109;BME280;18624;50.042;8.436;2022-10-31T03:35:08;100946.84;;;11.21;100.00
32109;BME280;18624;50.042;8.436;2022-10-31T03:37:37;100937.31;;;11.29;100.00
32109;BME280;18624;50.042;8.436;2022-10-31T03:40:10;100932.25;;;11.27;100.00
32109;BME280;18624;50.042;8.436;2022-10-31T03:42:41;100931.88;;;11.25;100.00
32109;BME280;18624;50.042;8.436;2022-10-31T03:45:17;100928.03;;;11.23;100.00
32109;BME280;18624;50.042;8.436;2022-10-31T03:47:45;100803.28;;;10.41;100.00
32109;BME280;18624;50.042;8.436;2022-10-31T03:50:14;100928.03;;;11.23;100.00
32109;BME280;18624;50.042;8.436;2022-10-31T03:55:18;100922.03;;;11.28;100.00
32109;BME280;18624;50.042;8.436;2022-10-31T03:57:52;100922.03;;;11.28;100.00
32109;BME280;18624;50.042;8.436;2022-10-31T04:00:22;100918.16;;;11.25;100.00
32109;BME280;18624;50.042;8.436;2022-10-31T04:05:27;100916.50;;;11.31;100.00
32109;BME280;18624;50.042;8.436;2022-10-31T04:07:59;100893.31;;;11.12;100.00
32109;BME280;18624;50.042;8.436;2022-10-31T04:10:28;100918.03;;;11.32;100.00
32109;BME280;18624;50.042;8.436;2022-10-31T04:13:03;100872.31;;;11.02;100.00
32109;BME280;18624;50.042;8.436;2022-10-31T04:15:49;100927.25;;;11.42;100.00
32109;BME280;18624;50.042;8.436;2022-10-31T04:18:24;100933.97;;;11.41;100.00
32109;BME280;18624;50.042;8.436;2022-10-31T04:21:08;100937.47;;;11.41;100.00
32109;BME280;18624;50.042;8.436;2022-10-31T04:23:35;100940.66;;;11.40;100.00
32109;BME280;18624;50.042;8.436;2022-10-31T04:26:12;100938.31;;;11.38;100.00
32109;BME280;18624;50.042;8.436;2022-10-31T04:28:42;100934.78;;;11.38;100.00
32109;BME280;18624;50.042;8.436;2022-10-31T04:31:11;100944.22;;;11.37;100.00
32109;BME280;18624;50.042;8.436;2022-10-31T04:33:38;100950.84;;;11.39;100.00
32109;BME280;18624;50.042;8.436;2022-10-31T04:36:05;100945.38;;;11.39;100.00
32109;BME280;18624;50.042;8.436;2022-10-31T04:38:31;100926.09;;;11.20;100.00
32109;BME280;18624;50.042;8.436;2022-10-31T04:40:58;100932.41;;;11.16;100.00
32109;BME280;18624;50.042;8.436;2022-10-31T04:43:43;100919.97;;;11.12;100.00
32109;BME280;18624;50.042;8.436;2022-10-31T04:46:10;100906.09;;;10.99;100.00
32109;BME280;18624;50.042;8.436;2022-10-31T04:48:36;100948.56;;;11.34;100.00
32109;BME280;18624;50.042;8.436;2022-10-31T04:51:05;100946.97;;;11.37;100.00
32109;BME280;18624;50.042;8.436;2022-10-31T04:53:31;100951.63;;;11.40;100.00
32109;BME280;18624;50.042;8.436;2022-10-31T04:56:17;100944.88;;;11.45;100.00
32109;BME280;18624;50.042;8.436;2022-10-31T04:58:46;100943.63;;;11.49;100.00
32109;BME280;18624;50.042;8.436;2022-10-31T05:01:13;100924.94;;;11.40;100.00
32109;BME280;18624;50.042;8.436;2022-10-31T05:03:39;100939.13;;;11.59;100.00
32109;BME280;18624;50.042;8.436;2022-10-31T05:06:07;100935.53;;;11.62;100.00
32109;BME280;18624;50.042;8.436;2022-10-31T05:08:34;100928.84;;;11.63;100.00
32109;BME280;18624;50.042;8.436;2022-10-31T05:11:04;100930.03;;;11.62;100.00
32109;BME280;18624;50.042;8.436;2022-10-31T05:13:32;100930.31;;;11.68;100.00
32109;BME280;18624;50.042;8.436;2022-10-31T05:16:10;100918.97;;;11.65;100.00
32109;BME280;18624;50.042;8.436;2022-10-31T05:18:55;100921.66;;;11.69;100.00
32109;BME280;18624;50.042;8.436;2022-10-31T05:21:28;100919.69;;;11.70;100.00
32109;BME280;18624;50.042;8.436;2022-10-31T05:23:59;100923.63;;;11.69;100.00
32109;BME280;18624;50.042;8.436;2022-10-31T05:26:26;100929.94;;;11.65;100.00
32109;BME280;18624;50.042;8.436;2022-10-31T05:28:53;100923.69;;;11.65;100.00
32109;BME280;18624;50.042;8.436;2022-10-31T05:31:20;100933.13;;;11.64;100.00
32109;BME280;18624;50.042;8.436;2022-10-31T05:33:48;100930.72;;;11.66;100.00
32109;BME280;18624;50.042;8.436;2022-10-31T05:36:33;100883.06;;;11.36;100.00
32109;BME280;18624;50.042;8.436;2022-10-31T05:39:03;100926.38;;;11.69;100.00
32109;BME280;18624;50.042;8.436;2022-10-31T05:41:34;100924.81;;;11.68;100.00
32109;BME280;18624;50.042;8.436;2022-10-31T05:44:04;100922.41;;;11.70;100.00
32109;BME280;18624;50.042;8.436;2022-10-31T05:46:38;100932.63;;;11.69;100.00
32109;BME280;18624;50.042;8.436;2022-10-31T05:49:27;100919.34;;;11.68;100.00
32109;BME280;18624;50.042;8.436;2022-10-31T05:52:28;100918.47;;;11.71;100.00
32109;BME280;18624;50.042;8.436;2022-10-31T05:55:05;100917.63;;;11.74;100.00
32109;BME280;18624;50.042;8.436;2022-10-31T05:57:32;100924.66;;;11.75;100.00
32109;BME280;18624;50.042;8.436;2022-10-31T05:59:59;100865.06;;;11.35;100.00
32109;BME280;18624;50.042;8.436;2022-10-31T06:02:26;100858.72;;;11.38;100.00
32109;BME280;18624;50.042;8.436;2022-10-31T06:05:18;100913.69;;;11.75;100.00
32109;BME280;18624;50.042;8.436;2022-10-31T06:07:45;100918.41;;;11.74;100.00
32109;BME280;18624;50.042;8.436;2022-10-31T06:10:11;100921.16;;;11.74;100.00
32109;BME280;18624;50.042;8.436;2022-10-31T06:12:38;100923.13;;;11.74;100.00
32109;BME280;18624;50.042;8.436;2022-10-31T06:15:16;100918.41;;;11.74;100.00
32109;BME280;18624;50.042;8.436;2022-10-31T06:18:05;100913.69;;;11.75;100.00
32109;BME280;18624;50.042;8.436;2022-10-31T06:20:35;100908.19;;;11.75;100.00
32109;BME280;18624;50.042;8.436;2022-10-31T06:23:03;100908.19;;;11.75;100.00
32109;BME280;18624;50.042;8.436;2022-10-31T06:25:32;100911.75;;;11.75;100.00
32109;BME280;18624;50.042;8.436;2022-10-31T06:27:59;100909.75;;;11.76;100.00
32109;BME280;18624;50.042;8.436;2022-10-31T06:30:35;100909.00;;;11.75;100.00
32109;BME280;18624;50.042;8.436;2022-10-31T06:33:05;100910.88;;;11.78;100.00
32109;BME280;18624;50.042;8.436;2022-10-31T06:35:35;100847.81;;;11.35;100.00
32109;BME280;18624;50.042;8.436;2022-10-31T06:38:05;100917.91;;;11.79;100.00
32109;BME280;18624;50.042;8.436;2022-10-31T06:40:37;100918.63;;;11.83;100.00
32109;BME280;18624;50.042;8.436;2022-10-31T06:43:20;100922.88;;;11.88;100.00
32109;BME280;18624;50.042;8.436;2022-10-31T06:45:47;100914.28;;;11.86;100.00
32109;BME280;18624;50.042;8.436;2022-10-31T06:48:23;100910.78;;;11.85;100.00
32109;BME280;18624;50.042;8.436;2022-10-31T06:51:12;100923.72;;;11.85;100.00
32109;BME280;18624;50.042;8.436;2022-10-31T06:53:39;100807.63;;;11.05;100.00
32109;BME280;18624;50.042;8.436;2022-10-31T06:56:07;100930.31;;;11.87;100.00
32109;BME280;18624;50.042;8.436;2022-10-31T06:58:39;100924.50;;;11.85;100.00
32109;BME280;18624;50.042;8.436;2022-10-31T07:01:07;100928.66;;;11.94;100.00
32109;BME280;18624;50.042;8.436;2022-10-31T07:03:34;100882.94;;;11.63;100.00
32109;BME280;18624;50.042;8.436;2022-10-31T07:06:00;100933.47;;;12.06;100.00
32109;BME280;18624;50.042;8.436;2022-10-31T07:08:27;100929.44;;;12.10;100.00
32109;BME280;18624;50.042;8.436;2022-10-31T07:10:56;100916.09;;;11.93;100.00
32109;BME280;18624;50.042;8.436;2022-10-31T07:13:24;100901.25;;;11.90;100.00
32109;BME280;18624;50.042;8.436;2022-10-31T07:16:03;100931.09;;;12.08;100.00
32109;BME280;18624;50.042;8.436;2022-10-31T07:18:33;100736.50;;;10.74;100.00
32109;BME280;18624;50.042;8.436;2022-10-31T07:21:01;100594.56;;;9.79;100.00
32109;BME280;18624;50.042;8.436;2022-10-31T07:23:27;100824.72;;;11.32;100.00
32109;BME280;18624;50.042;8.436;2022-10-31T07:26:17;100928.75;;;12.06;100.00
32109;BME280;18624;50.042;8.436;2022-10-31T07:28:46;100900.38;;;11.93;100.00
32109;BME280;18624;50.042;8.436;2022-10-31T07:31:16;100923.50;;;11.96;100.00
32109;BME280;18624;50.042;8.436;2022-10-31T07:33:43;100456.25;;;8.84;100.00
32109;BME280;18624;50.042;8.436;2022-10-31T07:36:25;100838.63;;;11.61;100.00
32109;BME280;18624;50.042;8.436;2022-10-31T07:38:54;100881.66;;;11.88;100.00
32109;BME280;18624;50.042;8.436;2022-10-31T07:41:21;100946.72;;;12.47;100.00
32109;BME280;18624;50.042;8.436;2022-10-31T07:43:47;100941.13;;;12.51;100.00
32109;BME280;18624;50.042;8.436;2022-10-31T07:46:17;100940.22;;;12.57;100.00
32109;BME280;18624;50.042;8.436;2022-10-31T07:49:02;100894.81;;;12.33;100.00
32109;BME280;18624;50.042;8.436;2022-10-31T07:51:47;100945.44;;;12.68;100.00
32109;BME280;18624;50.042;8.436;2022-10-31T07:54:43;100844.97;;;12.14;100.00
32109;BME280;18624;50.042;8.436;2022-10-31T07:57:09;100942.44;;;12.79;100.00
32109;BME280;18624;50.042;8.436;2022-10-31T07:59:37;100929.88;;;12.78;100.00
32109;BME280;18624;50.042;8.436;2022-10-31T08:02:05;100912.53;;;12.64;100.00
32109;BME280;18624;50.042;8.436;2022-10-31T08:05:07;100947.00;;;12.85;100.00
32109;BME280;18624;50.042;8.436;2022-10-31T08:07:56;100935.75;;;12.80;100.00
32109;BME280;18624;50.042;8.436;2022-10-31T08:10:26;100935.75;;;12.80;100.00
32109;BME280;18624;50.042;8.436;2022-10-31T08:13:01;100947.78;;;12.86;100.00
32109;BME280;18624;50.042;8.436;2022-10-31T08:15:30;100935.56;;;12.87;100.00
32109;BME280;18624;50.042;8.436;2022-10-31T08:17:57;100933.94;;;12.89;100.00
32109;BME280;18624;50.042;8.436;2022-10-31T08:20:24;100946.03;;;12.92;100.00
32109;BME280;18624;50.042;8.436;2022-10-31T08:23:03;100940.91;;;12.94;100.00
32109;BME280;18624;50.042;8.436;2022-10-31T08:25:34;100951.22;;;12.90;100.00
32109;BME280;18624;50.042;8.436;2022-10-31T08:28:05;100933.41;;;12.78;100.00
32109;BME280;18624;50.042;8.436;2022-10-31T08:30:33;100938.22;;;12.90;100.00
32109;BME280;18624;50.042;8.436;2022-10-31T08:33:20;100936.69;;;12.89;100.00
32109;BME280;18624;50.042;8.436;2022-10-31T08:36:22;100929.66;;;12.88;100.00
32109;BME280;18624;50.042;8.436;2022-10-31T08:39:24;100926.53;;;12.86;100.00
32109;BME280;18624;50.042;8.436;2022-10-31T08:41:50;100929.72;;;12.85;100.00
32109;BME280;18624;50.042;8.436;2022-10-31T08:44:17;100919.94;;;12.84;100.00
32109;BME280;18624;50.042;8.436;2022-10-31T08:46:43;100925.69;;;12.89;100.00
32109;BME280;18624;50.042;8.436;2022-10-31T08:49:10;100922.06;;;12.92;100.00
32109;BME280;18624;50.042;8.436;2022-10-31T08:51:39;100921.63;;;12.94;100.00
32109;BME280;18624;50.042;8.436;2022-10-31T08:54:06;100931.78;;;12.97;100.00
32109;BME280;18624;50.042;8.436;2022-10-31T08:56:32;100892.59;;;12.77;100.00
32109;BME280;18624;50.042;8.436;2022-10-31T08:59:01;100910.44;;;13.01;100.00
32109;BME280;18624;50.042;8.436;2022-10-31T09:01:43;100912.94;;;13.12;100.00
32109;BME280;18624;50.042;8.436;2022-10-31T09:04:11;100911.28;;;13.14;100.00
32109;BME280;18624;50.042;8.436;2022-10-31T09:06:37;100902.38;;;13.10;100.00
32109;BME280;18624;50.042;8.436;2022-10-31T09:09:21;100901.47;;;13.13;100.00
32109;BME280;18624;50.042;8.436;2022-10-31T09:11:47;100906.91;;;13.17;100.00
32109;BME280;18624;50.042;8.436;2022-10-31T09:14:34;100841.00;;;12.81;100.00
32109;BME280;18624;50.042;8.436;2022-10-31T09:17:19;100900.81;;;13.26;100.00
32109;BME280;18624;50.042;8.436;2022-10-31T09:20:06;100907.84;;;13.27;100.00
32109;BME280;18624;50.042;8.436;2022-10-31T09:22:34;100884.09;;;13.16;100.00
32109;BME280;18624;50.042;8.436;2022-10-31T09:25:00;100870.78;;;13.15;100.00
32109;BME280;18624;50.042;8.436;2022-10-31T09:27:27;100904.03;;;13.37;100.00
32109;BME280;18624;50.042;8.436;2022-10-31T09:29:55;100907.03;;;13.42;100.00
32109;BME280;18624;50.042;8.436;2022-10-31T09:32:22;100906.91;;;13.46;100.00
32109;BME280;18624;50.042;8.436;2022-10-31T09:34:49;100897.47;;;13.47;100.00
32109;BME280;18624;50.042;8.436;2022-10-31T09:37:18;100846.34;;;13.17;100.00
32109;BME280;18624;50.042;8.436;2022-10-31T09:39:45;100903.44;;;13.58;100.00
32109;BME280;18624;50.042;8.436;2022-10-31T09:45:26;100891.88;;;13.63;100.00
32109;BME280;18624;50.042;8.436;2022-10-31T09:51:01;100893.13;;;13.75;100.00
32109;BME280;18624;50.042;8.436;2022-10-31T09:53:53;100862.22;;;13.55;100.00
32109;BME280;18624;50.042;8.436;2022-10-31T09:56:25;100889.50;;;13.78;100.00
32109;BME280;18624;50.042;8.436;2022-10-31T09:58:58;100889.06;;;13.80;100.00
32109;BME280;18624;50.042;8.436;2022-10-31T10:01:43;100885.44;;;13.83;100.00
32109;BME280;18624;50.042;8.436;2022-10-31T10:07:08;100877.72;;;13.90;100.00
32109;BME280;18624;50.042;8.436;2022-10-31T10:09:44;100878.38;;;13.94;100.00
32109;BME280;18624;50.042;8.436;2022-10-31T10:21:08;100863.75;;;14.10;100.00
32109;BME280;18624;50.042;8.436;2022-10-31T10:23:45;100865.50;;;14.17;100.00
32109;BME280;18624;50.042;8.436;2022-10-31T10:26:20;100865.41;;;14.21;100.00
32109;BME280;18624;50.042;8.436;2022-10-31T10:28:54;100856.56;;;14.13;100.00
32109;BME280;18624;50.042;8.436;2022-10-31T10:31:27;100872.03;;;14.23;100.00
32109;BME280;18624;50.042;8.436;2022-10-31T10:34:01;100873.09;;;14.26;100.00
32109;BME280;18624;50.042;8.436;2022-10-31T10:36:52;100873.47;;;14.28;100.00
32109;BME280;18624;50.042;8.436;2022-10-31T10:39:25;100865.50;;;14.30;100.00
32109;BME280;18624;50.042;8.436;2022-10-31T10:41:55;100821.84;;;14.03;100.00
32109;BME280;18624;50.042;8.436;2022-10-31T10:44:45;100848.19;;;14.29;100.00
32109;BME280;18624;50.042;8.436;2022-10-31T10:47:38;100857.00;;;14.37;100.00
32109;BME280;18624;50.042;8.436;2022-10-31T10:50:34;100856.09;;;14.40;100.00
32109;BME280;18624;50.042;8.436;2022-10-31T10:53:24;100853.91;;;14.48;100.00
32109;BME280;18624;50.042;8.436;2022-10-31T10:56:20;100852.50;;;14.56;100.00
32109;BME280;18624;50.042;8.436;2022-10-31T10:58:48;100832.28;;;14.59;100.00
32109;BME280;18624;50.042;8.436;2022-10-31T11:01:15;100835.69;;;14.63;100.00
32109;BME280;18624;50.042;8.436;2022-10-31T11:03:42;100835.25;;;14.64;100.00
32109;BME280;18624;50.042;8.436;2022-10-31T11:06:19;100820.44;;;14.71;100.00
32109;BME280;18624;50.042;8.436;2022-10-31T11:08:48;100815.25;;;14.73;100.00
32109;BME280;18624;50.042;8.436;2022-10-31T11:13:47;100812.88;;;14.84;100.00
32109;BME280;18624;50.042;8.436;2022-10-31T11:18:54;100758.44;;;14.63;100.00
32109;BME280;18624;50.042;8.436;2022-10-31T11:21:31;100803.91;;;14.93;100.00
32109;BME280;18624;50.042;8.436;2022-10-31T11:26:36;100779.91;;;15.03;100.00
32109;BME280;18624;50.042;8.436;2022-10-31T11:29:04;100712.78;;;14.62;100.00
32109;BME280;18624;50.042;8.436;2022-10-31T11:31:34;100781.06;;;15.14;100.00
32109;BME280;18624;50.042;8.436;2022-10-31T11:34:11;100768.56;;;15.23;100.00
32109;BME280;18624;50.042;8.436;2022-10-31T11:36:43;100770.41;;;15.26;100.00
32109;BME280;18624;50.042;8.436;2022-10-31T11:39:22;100724.97;;;14.96;100.00
32109;BME280;18624;50.042;8.436;2022-10-31T11:41:52;100776.25;;;15.28;100.00
32109;BME280;18624;50.042;8.436;2022-10-31T11:44:29;100769.97;;;15.27;100.00
32109;BME280;18624;50.042;8.436;2022-10-31T11:47:05;100762.94;;;15.35;100.00
32109;BME280;18624;50.042;8.436;2022-10-31T11:49:37;100769.56;;;15.38;100.00
32109;BME280;18624;50.042;8.436;2022-10-31T11:52:08;100759.59;;;15.40;100.00
32109;BME280;18624;50.042;8.436;2022-10-31T11:55:13;100754.44;;;15.52;100.00
32109;BME280;18624;50.042;8.436;2022-10-31T11:57:45;100738.56;;;15.43;100.00
32109;BME280;18624;50.042;8.436;2022-10-31T12:00:38;100747.88;;;15.58;100.00
32109;BME280;18624;50.042;8.436;2022-10-31T12:03:15;100748.19;;;15.60;100.00
32109;BME280;18624;50.042;8.436;2022-10-31T12:06:02;100740.66;;;15.61;100.00
32109;BME280;18624;50.042;8.436;2022-10-31T12:08:31;100752.81;;;15.63;100.00
32109;BME280;18624;50.042;8.436;2022-10-31T12:14:23;100739.31;;;15.65;100.00
32109;BME280;18624;50.042;8.436;2022-10-31T12:16:59;100743.94;;;15.68;100.00
32109;BME280;18624;50.042;8.436;2022-10-31T12:28:03;100733.34;;;15.67;100.00
32109;BME280;18624;50.042;8.436;2022-10-31T12:36:43;100675.97;;;15.89;100.00
32109;BME280;18624;50.042;8.436;2022-10-31T12:39:27;100688.28;;;15.98;100.00
32109;BME280;18624;50.042;8.436;2022-10-31T12:45:24;100689.38;;;16.09;100.00
32109;BME280;18624;50.042;8.436;2022-10-31T12:50:52;100669.41;;;16.14;100.00
32109;BME280;18624;50.042;8.436;2022-10-31T13:02:03;100650.22;;;16.20;100.00
32109;BME280;18624;50.042;8.436;2022-10-31T13:04:43;100566.28;;;15.59;100.00
32109;BME280;18624;50.042;8.436;2022-10-31T13:07:22;100648.53;;;16.23;100.00
32109;BME280;18624;50.042;8.436;2022-10-31T13:10:00;100648.69;;;16.19;100.00
32109;BME280;18624;50.042;8.436;2022-10-31T13:12:31;100648.38;;;16.17;100.00
32109;BME280;18624;50.042;8.436;2022-10-31T13:15:16;100641.00;;;16.14;100.00
32109;BME280;18624;50.042;8.436;2022-10-31T13:17:48;100637.13;;;16.11;100.00
32109;BME280;18624;50.042;8.436;2022-10-31T13:20:42;100635.63;;;16.10;100.00
32109;BME280;18624;50.042;8.436;2022-10-31T13:23:16;100622.25;;;16.09;100.00
32109;BME280;18624;50.042;8.436;2022-10-31T13:26:11;100617.97;;;16.08;100.00
32109;BME280;18624;50.042;8.436;2022-10-31T13:29:02;100618.72;;;16.08;100.00
32109;BME280;18624;50.042;8.436;2022-10-31T13:31:33;100591.84;;;15.90;100.00
32109;BME280;18624;50.042;8.436;2022-10-31T13:34:18;100605.53;;;16.12;100.00
32109;BME280;18624;50.042;8.436;2022-10-31T13:42:34;100605.66;;;16.09;100.00
32109;BME280;18624;50.042;8.436;2022-10-31T13:45:24;100595.06;;;16.07;100.00
32109;BME280;18624;50.042;8.436;2022-10-31T13:48:19;100595.22;;;16.13;100.00
32109;BME280;18624;50.042;8.436;2022-10-31T13:51:00;100578.78;;;16.00;100.00
32109;BME280;18624;50.042;8.436;2022-10-31T13:56:29;100588.31;;;16.08;100.00
32109;BME280;18624;50.042;8.436;2022-10-31T14:01:35;100582.78;;;16.08;100.00
32109;BME280;18624;50.042;8.436;2022-10-31T14:04:15;100560.81;;;16.05;100.00
32109;BME280;18624;50.042;8.436;2022-10-31T14:06:55;100564.94;;;16.18;100.00
32109;BME280;18624;50.042;8.436;2022-10-31T14:09:35;100566.47;;;16.19;100.00
32109;BME280;18624;50.042;8.436;2022-10-31T14:12:10;100560.03;;;16.13;100.00
32109;BME280;18624;50.042;8.436;2022-10-31T14:14:49;100569.88;;;16.14;100.00
32109;BME280;18624;50.042;8.436;2022-10-31T14:17:45;100568.00;;;16.11;100.00
32109;BME280;18624;50.042;8.436;2022-10-31T14:22:42;100580.31;;;16.10;100.00
32109;BME280;18624;50.042;8.436;2022-10-31T14:25:31;100597.81;;;16.07;100.00
32109;BME280;18624;50.042;8.436;2022-10-31T14:28:00;100609.81;;;16.04;100.00
32109;BME280;18624;50.042;8.436;2022-10-31T14:30:29;100601.19;;;16.02;100.00
32109;BME280;18624;50.042;8.436;2022-10-31T14:33:17;100595.66;;;16.02;100.00
32109;BME280;18624;50.042;8.436;2022-10-31T14:35:56;100590.13;;;16.02;100.00
32109;BME280;18624;50.042;8.436;2022-10-31T14:38:48;100474.94;;;15.35;100.00
32109;BME280;18624;50.042;8.436;2022-10-31T14:41:29;100576.78;;;16.10;100.00
32109;BME280;18624;50.042;8.436;2022-10-31T14:44:28;100574.78;;;16.19;100.00
32109;BME280;18624;50.042;8.436;2022-10-31T14:47:19;100576.91;;;16.25;100.00
32109;BME280;18624;50.042;8.436;2022-10-31T14:50:14;100575.53;;;16.29;100.00
32109;BME280;18624;50.042;8.436;2022-10-31T14:52:47;100564.78;;;16.22;100.00